Time;durP1;ratioP1;P1;durP2;ratioP2;P2;SDS_P1;SDS_P2;PMS_P1;PMS_P2;Temp;Humidity;BMP_temperature;BMP_pressure;BME280_temperature;BME280_humidity;BME280_pressure;Samples;Min_cycle;Max_cycle;Signal;HPM_P1;HPM_P2
2021/10/31 00:00:03;;;;;;;8.00;5.13;;;;;;;9.81;100.00;95727.69;5050086;28;20562;-73
2021/10/31 00:02:38;;;;;;;6.90;4.63;;;;;;;9.80;100.00;95726.88;5047818;28;20712;-73
2021/10/31 00:05:05;;;;;;;7.53;4.93;;;;;;;9.80;100.00;95723.41;5041156;28;20040;-73
2021/10/31 00:07:30;;;;;;;8.53;4.90;;;;;;;9.81;100.00;95722.44;5059283;28;20020;-73
2021/10/31 00:09:56;;;;;;;7.10;4.77;;;;;;;9.91;100.00;95726.50;5049641;28;20089;-73
2021/10/31 00:12:22;;;;;;;8.50;5.23;;;;;;;9.89;100.00;95728.50;5052601;28;20036;-73
2021/10/31 00:14:48;;;;;;;10.63;5.67;;;;;;;9.88;100.00;95733.91;5044854;28;20048;-73
2021/10/31 00:17:14;;;;;;;8.43;5.43;;;;;;;9.87;100.00;95734.91;5039284;28;20407;-74
2021/10/31 00:19:39;;;;;;;7.30;5.27;;;;;;;9.86;100.00;95738.50;5040761;28;20114;-73
2021/10/31 00:22:05;;;;;;;8.73;5.20;;;;;;;9.84;100.00;95736.03;5043907;28;20029;-73
2021/10/31 00:24:31;;;;;;;9.10;5.37;;;;;;;9.84;100.00;95735.22;5019768;28;20601;-73
2021/10/31 00:26:57;;;;;;;9.50;5.20;;;;;;;9.87;100.00;95734.91;5035643;28;20040;-73
2021/10/31 00:29:22;;;;;;;8.33;5.43;;;;;;;9.89;100.00;95730.28;5056034;28;20040;-73
2021/10/31 00:31:48;;;;;;;9.80;6.57;;;;;;;9.87;100.00;95738.34;5065322;28;20063;-73
2021/10/31 00:34:14;;;;;;;9.90;5.80;;;;;;;9.85;100.00;95734.22;5037733;28;20045;-74
2021/10/31 00:36:40;;;;;;;9.07;5.30;;;;;;;9.86;100.00;95735.88;5038612;28;20020;-74
2021/10/31 00:39:06;;;;;;;8.90;5.07;;;;;;;9.97;100.00;95737.34;5040209;28;20056;-74
2021/10/31 00:41:33;;;;;;;10.60;5.90;;;;;;;9.90;100.00;95739.81;5037375;28;20038;-74
2021/10/31 00:43:58;;;;;;;10.50;6.83;;;;;;;9.84;100.00;95740.47;5071171;28;20101;-74
2021/10/31 00:46:24;;;;;;;10.43;6.70;;;;;;;9.84;100.00;95746.53;5066710;28;20028;-74
2021/10/31 00:48:50;;;;;;;9.43;5.80;;;;;;;9.79;100.00;95754.13;5066526;28;20035;-74
2021/10/31 00:51:17;;;;;;;15.23;7.57;;;;;;;9.79;100.00;95740.13;5044839;28;20045;-74
2021/10/31 00:53:43;;;;;;;25.63;20.30;;;;;;;9.77;100.00;95747.38;5041966;28;20037;-74
2021/10/31 00:56:10;;;;;;;14.43;10.43;;;;;;;9.77;100.00;95750.00;5043154;28;20071;-74
2021/10/31 00:58:36;;;;;;;9.30;7.57;;;;;;;9.75;100.00;95760.66;5025029;28;20036;-74
2021/10/31 01:01:02;;;;;;;9.77;6.33;;;;;;;9.71;100.00;95756.72;5068288;28;20020;-74
2021/10/31 01:03:28;;;;;;;10.60;7.90;;;;;;;9.72;100.00;95750.50;5045076;28;20439;-74
2021/10/31 01:06:06;;;;;;;9.67;6.47;;;;;;;9.71;100.00;95751.47;5061850;28;20029;-74
2021/10/31 01:08:48;;;;;;;9.17;5.60;;;;;;;9.71;100.00;95753.28;5030643;28;20047;-74
2021/10/31 01:11:58;;;;;;;9.47;4.93;;;;;;;9.85;100.00;95747.34;5041243;28;20037;-74
2021/10/31 01:15:16;;;;;;;19.13;14.83;;;;;;;9.92;100.00;95750.97;5017122;28;20052;-74
2021/10/31 01:18:13;;;;;;;14.73;11.97;;;;;;;9.97;100.00;95745.22;5002186;28;20036;-75
2021/10/31 01:21:10;;;;;;;17.87;15.00;;;;;;;9.96;100.00;95747.03;5061971;28;20452;-74
2021/10/31 01:24:10;;;;;;;36.63;31.27;;;;;;;10.01;100.00;95749.97;5035636;28;20041;-75
2021/10/31 01:26:46;;;;;;;31.20;25.80;;;;;;;10.01;100.00;95752.59;5069072;28;20063;-73
2021/10/31 01:29:14;;;;;;;16.50;13.07;;;;;;;9.99;100.00;95751.94;5040918;28;20102;-73
2021/10/31 01:31:59;;;;;;;10.43;7.07;;;;;;;9.94;100.00;95750.81;5062961;28;20029;-73
2021/10/31 01:35:02;;;;;;;10.23;6.57;;;;;;;9.94;100.00;95750.81;5039765;28;20102;-73
2021/10/31 01:38:02;;;;;;;10.07;7.33;;;;;;;9.91;100.00;95751.94;5038123;28;20063;-73
2021/10/31 01:40:50;;;;;;;7.77;4.77;;;;;;;9.91;100.00;95771.16;5064583;28;20067;-73
2021/10/31 01:43:39;;;;;;;9.33;4.97;;;;;;;9.89;100.00;95764.41;5025073;28;20040;-73
2021/10/31 01:46:04;;;;;;;7.20;5.03;;;;;;;9.89;100.00;95772.28;5060618;28;20040;-74
2021/10/31 01:48:40;;;;;;;9.57;4.80;;;;;;;9.87;100.00;95769.03;5042967;28;20371;-73
2021/10/31 01:51:13;;;;;;;6.23;4.00;;;;;;;9.91;100.00;95767.72;5050611;28;20373;-73
2021/10/31 01:53:51;;;;;;;8.57;5.23;;;;;;;9.93;100.00;95760.50;5038922;28;20036;-73
2021/10/31 01:56:19;;;;;;;6.80;4.27;;;;;;;9.88;100.00;95754.91;5042530;28;20040;-73
2021/10/31 01:59:10;;;;;;;9.63;4.90;;;;;;;9.82;100.00;95745.88;5037108;28;20153;-73
2021/10/31 02:01:40;;;;;;;7.37;4.90;;;;;;;9.79;100.00;95750.66;5027626;28;20049;-73
2021/10/31 02:04:09;;;;;;;7.23;5.17;;;;;;;9.70;100.00;95743.78;5044505;28;20024;-73
2021/10/31 02:06:40;;;;;;;7.07;4.60;;;;;;;9.63;100.00;95741.00;5037021;28;20116;-73
2021/10/31 02:09:07;;;;;;;7.53;4.97;;;;;;;9.54;100.00;95734.91;5059314;28;20032;-74
2021/10/31 02:11:36;;;;;;;8.47;4.63;;;;;;;9.56;100.00;95732.16;5050601;28;20029;-73
2021/10/31 02:14:02;;;;;;;6.00;4.23;;;;;;;9.70;100.00;95730.66;5068014;28;20128;-74
2021/10/31 02:16:29;;;;;;;6.23;3.80;;;;;;;9.78;100.00;95722.75;5050288;28;20025;-73
2021/10/31 02:19:02;;;;;;;8.13;4.30;;;;;;;9.65;100.00;95724.06;5027051;28;20028;-74
2021/10/31 02:21:31;;;;;;;6.88;3.75;;;;;;;9.58;100.00;95730.16;5035296;28;20032;-73
2021/10/31 02:23:58;;;;;;;6.47;3.90;;;;;;;9.54;100.00;95731.47;5038985;28;20028;-73
2021/10/31 02:26:24;;;;;;;6.03;3.83;;;;;;;9.48;100.00;95725.06;5055318;28;20064;-74
2021/10/31 02:28:54;;;;;;;7.37;3.77;;;;;;;9.41;100.00;95724.91;5025218;28;20535;-74
2021/10/31 02:31:21;;;;;;;7.53;3.87;;;;;;;9.47;100.00;95723.44;5039536;28;20043;-74
2021/10/31 02:33:46;;;;;;;8.93;3.83;;;;;;;9.61;100.00;95720.16;5018414;28;20043;-74
2021/10/31 02:36:12;;;;;;;6.40;3.60;;;;;;;9.52;100.00;95723.75;5064559;28;20328;-75
2021/10/31 02:38:38;;;;;;;6.23;2.83;;;;;;;9.49;100.00;95715.41;5022206;28;20021;-74
2021/10/31 02:41:03;;;;;;;6.07;3.10;;;;;;;9.44;100.00;95710.66;5054646;28;20048;-74
2021/10/31 02:43:29;;;;;;;5.57;3.00;;;;;;;9.37;100.00;95717.53;5053633;28;20077;-74
2021/10/31 02:45:55;;;;;;;5.33;2.70;;;;;;;9.59;100.00;95724.75;5061618;28;20040;-74
2021/10/31 02:48:20;;;;;;;4.37;2.37;;;;;;;9.64;100.00;95714.56;5043472;28;20070;-74
2021/10/31 02:50:47;;;;;;;3.67;2.17;;;;;;;9.66;100.00;95717.03;5042295;28;20085;-74
2021/10/31 02:53:36;;;;;;;4.53;2.70;;;;;;;9.78;100.00;95722.75;5032650;28;20039;-74
2021/10/31 02:56:33;;;;;;;4.50;2.20;;;;;;;9.59;100.00;95722.13;5059933;28;20115;-74
2021/10/31 02:59:17;;;;;;;5.13;2.40;;;;;;;9.45;100.00;95720.97;5034587;28;20114;-74
2021/10/31 03:01:44;;;;;;;;;;;;;;;9.33;100.00;95719.69;5054233;28;20052;-74
2021/10/31 03:04:10;;;;;;;5.97;3.13;;;;;;;9.20;100.00;95714.91;5041729;28;19995;-74
2021/10/31 03:06:37;;;;;;;6.70;3.73;;;;;;;9.08;100.00;95712.78;5057950;28;20038;-74
2021/10/31 03:09:02;;;;;;;5.37;3.70;;;;;;;8.93;100.00;95720.47;5055477;28;20043;-74
2021/10/31 03:11:29;;;;;;;11.70;4.43;;;;;;;8.87;100.00;95721.91;5063434;28;20041;-73
2021/10/31 03:13:55;;;;;;;6.30;4.00;;;;;;;8.85;100.00;95720.44;5047786;28;20486;-73
2021/10/31 03:16:21;;;;;;;7.20;4.03;;;;;;;8.86;100.00;95720.28;5057668;28;20040;-73
2021/10/31 03:18:46;;;;;;;6.50;4.27;;;;;;;8.76;100.00;95719.63;5064507;28;20054;-74
2021/10/31 03:21:12;;;;;;;5.80;3.80;;;;;;;8.72;100.00;95721.75;5045142;28;20032;-74
2021/10/31 03:23:38;;;;;;;5.53;3.87;;;;;;;8.74;100.00;95716.31;5022168;28;20108;-73
2021/10/31 03:26:04;;;;;;;6.93;3.37;;;;;;;8.69;100.00;95719.44;5041005;28;20040;-74
2021/10/31 03:28:30;;;;;;;6.27;3.43;;;;;;;8.65;100.00;95723.38;5043536;28;20657;-74
2021/10/31 03:30:57;;;;;;;6.20;3.50;;;;;;;8.61;100.00;95711.53;5046241;28;20110;-73
2021/10/31 03:33:22;;;;;;;5.30;3.10;;;;;;;8.59;100.00;95708.28;5059350;28;20180;-73
2021/10/31 03:35:48;;;;;;;5.80;3.33;;;;;;;8.60;100.00;95703.84;5031567;28;20112;-73
2021/10/31 03:38:14;;;;;;;5.60;3.33;;;;;;;8.62;100.00;95704.50;5061008;28;20051;-74
2021/10/31 03:40:39;;;;;;;6.17;3.20;;;;;;;8.53;100.00;95708.91;5026296;28;20045;-74
2021/10/31 03:43:05;;;;;;;5.10;2.80;;;;;;;8.55;100.00;95714.81;5056876;28;20035;-74
2021/10/31 03:45:31;;;;;;;5.07;2.83;;;;;;;8.60;100.00;95719.56;5056840;28;20044;-74
2021/10/31 03:47:57;;;;;;;6.17;2.63;;;;;;;8.70;100.00;95720.25;5048107;28;20024;-74
2021/10/31 03:50:23;;;;;;;4.63;2.40;;;;;;;8.68;100.00;95717.78;5044835;28;20078;-74
2021/10/31 03:52:49;;;;;;;6.03;2.90;;;;;;;8.60;100.00;95719.56;5040930;28;20070;-74
2021/10/31 03:55:16;;;;;;;4.20;2.47;;;;;;;8.54;100.00;95721.00;5023555;28;20033;-74
2021/10/31 03:57:42;;;;;;;4.57;2.60;;;;;;;8.49;100.00;95718.06;5041014;28;20021;-73
2021/10/31 04:00:13;;;;;;;5.63;2.40;;;;;;;8.46;100.00;95716.56;5059195;28;20521;-73
2021/10/31 04:02:39;;;;;;;5.33;2.93;;;;;;;8.39;100.00;95720.81;5067418;28;20035;-74
2021/10/31 04:05:09;;;;;;;5.20;2.60;;;;;;;8.31;100.00;95717.31;5037039;28;20029;-73
2021/10/31 04:07:35;;;;;;;5.33;3.00;;;;;;;8.21;100.00;95715.63;5038132;28;20414;-73
2021/10/31 04:10:03;;;;;;;5.13;3.30;;;;;;;8.40;100.00;95713.78;5059551;28;20474;-74
2021/10/31 04:12:29;;;;;;;8.53;3.10;;;;;;;8.42;100.00;95717.88;5042331;28;20123;-74
2021/10/31 04:14:55;;;;;;;6.90;3.57;;;;;;;8.35;100.00;95721.25;5059075;28;20167;-74
2021/10/31 04:17:21;;;;;;;5.47;3.40;;;;;;;8.32;100.00;95711.09;5062186;28;20085;-73
2021/10/31 04:19:46;;;;;;;6.33;3.43;;;;;;;8.29;100.00;95706.19;5047362;28;20051;-74
2021/10/31 04:22:12;;;;;;;5.53;3.60;;;;;;;8.23;100.00;95711.06;5048807;28;20043;-74
2021/10/31 04:24:38;;;;;;;6.07;3.50;;;;;;;8.19;100.00;95706.28;5061385;28;20023;-74
2021/10/31 04:27:04;;;;;;;5.90;3.67;;;;;;;8.14;100.00;95713.78;5044611;28;20044;-73
2021/10/31 04:29:30;;;;;;;6.17;3.90;;;;;;;8.16;100.00;95711.84;5058631;28;20043;-74
2021/10/31 04:31:56;;;;;;;5.77;3.67;;;;;;;8.12;100.00;95710.53;5021711;28;20060;-73
2021/10/31 04:34:22;;;;;;;6.17;3.67;;;;;;;8.06;100.00;95706.72;5072132;28;20127;-74
2021/10/31 04:36:50;;;;;;;5.73;3.27;;;;;;;7.99;100.00;95701.28;5043433;28;20505;-73
2021/10/31 04:39:16;;;;;;;7.53;3.70;;;;;;;7.96;100.00;95703.41;5061165;28;20157;-74
2021/10/31 04:41:45;;;;;;;6.13;3.87;;;;;;;7.99;100.00;95703.91;5047882;28;20047;-73
2021/10/31 04:44:11;;;;;;;6.20;3.83;;;;;;;7.99;100.00;95711.75;5068026;28;20043;-73
2021/10/31 04:46:37;;;;;;;6.80;3.97;;;;;;;7.99;100.00;95701.28;5053806;28;20086;-73
2021/10/31 04:49:03;;;;;;;6.90;3.90;;;;;;;8.13;100.00;95697.25;5039401;28;20406;-73
2021/10/31 04:51:28;;;;;;;7.03;3.53;;;;;;;8.15;100.00;95695.31;5063905;28;20444;-73
2021/10/31 04:53:54;;;;;;;6.47;3.70;;;;;;;8.23;100.00;95697.97;5061997;28;20120;-74
2021/10/31 04:56:23;;;;;;;7.37;4.40;;;;;;;8.15;100.00;95695.31;5046493;28;20565;-73
2021/10/31 04:58:53;;;;;;;6.73;4.30;;;;;;;8.09;100.00;95695.13;5039814;28;20025;-73
2021/10/31 05:01:20;;;;;;;7.00;4.40;;;;;;;8.04;100.00;95704.25;5051771;28;20036;-74
2021/10/31 05:03:45;;;;;;;6.73;3.87;;;;;;;8.03;100.00;95696.56;5041949;28;20032;-73
2021/10/31 05:06:11;;;;;;;6.53;3.87;;;;;;;8.04;100.00;95701.63;5054012;28;20063;-74
2021/10/31 05:08:37;;;;;;;7.30;4.37;;;;;;;8.07;100.00;95695.25;5042354;28;20027;-73
2021/10/31 05:11:03;;;;;;;6.33;4.13;;;;;;;8.05;100.00;95699.84;5050002;28;20060;-73
2021/10/31 05:13:29;;;;;;;7.97;5.03;;;;;;;7.93;100.00;95703.72;5029819;28;20021;-74
2021/10/31 05:15:57;;;;;;;9.23;5.87;;;;;;;7.98;100.00;95704.91;5057856;28;20124;-73
2021/10/31 05:18:22;;;;;;;9.00;6.00;;;;;;;7.96;100.00;95703.41;5061410;28;20030;-73
2021/10/31 05:20:48;;;;;;;9.10;6.33;;;;;;;7.99;100.00;95700.47;5030123;28;20405;-73
2021/10/31 05:23:14;;;;;;;11.80;6.77;;;;;;;8.03;100.00;95694.75;5044234;28;20036;-74
2021/10/31 05:25:40;;;;;;;10.73;6.77;;;;;;;8.06;100.00;95700.66;5045656;28;20044;-74
2021/10/31 05:28:05;;;;;;;11.30;7.00;;;;;;;8.02;100.00;95706.22;5053762;28;20647;-74
2021/10/31 05:30:34;;;;;;;10.97;7.03;;;;;;;7.96;100.00;95698.16;5066455;28;20064;-75
2021/10/31 05:33:00;;;;;;;14.90;7.13;;;;;;;7.90;100.00;95696.97;5036258;28;20115;-74
2021/10/31 05:35:25;;;;;;;12.20;8.07;;;;;;;7.85;100.00;95693.22;5035960;28;20041;-74
2021/10/31 05:37:57;;;;;;;9.53;7.23;;;;;;;7.92;100.00;95697.66;5056951;28;20474;-73
2021/10/31 05:40:24;;;;;;;13.77;9.27;;;;;;;7.89;100.00;95695.34;5041396;28;20555;-74
2021/10/31 05:42:50;;;;;;;14.37;8.93;;;;;;;7.93;100.00;95703.72;5064200;28;20029;-74
2021/10/31 05:45:16;;;;;;;11.33;7.93;;;;;;;7.95;100.00;95693.91;5056934;28;20121;-74
2021/10/31 05:47:43;;;;;;;14.17;8.73;;;;;;;7.96;100.00;95685.88;5043861;28;20481;-74
2021/10/31 05:50:13;;;;;;;12.77;8.53;;;;;;;7.93;100.00;95683.59;5046164;28;20044;-73
2021/10/31 05:52:39;;;;;;;12.67;8.97;;;;;;;7.89;100.00;95689.28;5039640;28;20040;-74
2021/10/31 05:55:07;;;;;;;14.03;9.27;;;;;;;7.85;100.00;95687.97;5050977;28;20037;-74
2021/10/31 05:57:33;;;;;;;11.97;9.00;;;;;;;7.82;100.00;95689.09;5055121;28;20078;-74
2021/10/31 05:59:59;;;;;;;12.60;9.57;;;;;;;7.82;100.00;95689.09;5056828;28;20035;-74
2021/10/31 06:02:24;;;;;;;11.93;9.00;;;;;;;7.84;100.00;95691.53;5053236;28;20429;-74
2021/10/31 06:04:51;;;;;;;12.50;9.27;;;;;;;7.83;100.00;95684.69;5035306;28;20504;-74
2021/10/31 06:07:16;;;;;;;13.37;8.97;;;;;;;7.79;100.00;95678.94;5057581;28;20040;-74
2021/10/31 06:09:42;;;;;;;12.73;8.70;;;;;;;7.75;100.00;95681.03;5042379;28;20020;-74
2021/10/31 06:12:09;;;;;;;13.87;9.57;;;;;;;7.71;100.00;95690.19;5066044;28;20115;-74
2021/10/31 06:14:36;;;;;;;12.63;9.07;;;;;;;7.63;100.00;95678.84;5025071;28;20623;-74
2021/10/31 06:17:03;;;;;;;13.73;8.70;;;;;;;7.53;100.00;95689.41;5045768;28;20036;-74
2021/10/31 06:19:30;;;;;;;11.97;8.77;;;;;;;7.45;100.00;95681.50;5055561;28;20048;-74
2021/10/31 06:21:56;;;;;;;10.70;7.60;;;;;;;7.39;100.00;95682.94;5057121;28;20028;-73
2021/10/31 06:24:22;;;;;;;13.10;8.13;;;;;;;7.36;100.00;95685.03;5042638;28;20016;-73
2021/10/31 06:26:47;;;;;;;16.07;9.70;;;;;;;7.47;100.00;95690.00;5041306;28;20154;-74
2021/10/31 06:29:13;;;;;;;12.57;8.73;;;;;;;7.53;100.00;95676.31;5054123;28;20527;-75
2021/10/31 06:31:39;;;;;;;12.17;8.73;;;;;;;7.54;100.00;95684.03;5065719;28;20056;-74
2021/10/31 06:34:05;;;;;;;11.67;8.27;;;;;;;7.48;100.00;95687.25;5051984;28;20624;-74
2021/10/31 06:36:31;;;;;;;12.13;8.07;;;;;;;7.38;100.00;95685.69;5055350;28;20416;-74
2021/10/31 06:38:57;;;;;;;10.57;7.80;;;;;;;7.32;100.00;95693.19;5057116;28;20036;-74
2021/10/31 06:41:23;;;;;;;12.50;7.67;;;;;;;7.42;100.00;95687.06;5035599;28;20108;-74
2021/10/31 06:43:49;;;;;;;11.60;7.63;;;;;;;7.45;100.00;95681.50;5052132;28;20113;-74
2021/10/31 06:46:15;;;;;;;12.10;8.80;;;;;;;7.47;100.00;95679.56;5055902;28;20109;-73
2021/10/31 06:48:40;;;;;;;10.60;7.83;;;;;;;7.47;100.00;95679.56;5062403;28;20024;-73
2021/10/31 06:51:06;;;;;;;11.50;9.07;;;;;;;7.49;100.00;95682.84;5042659;28;20033;-74
2021/10/31 06:53:32;;;;;;;12.03;8.60;;;;;;;7.72;100.00;95683.16;5042479;28;20025;-73
2021/10/31 06:55:57;;;;;;;13.97;9.07;;;;;;;8.16;100.00;95680.41;5022324;28;20120;-73
2021/10/31 06:58:23;;;;;;;12.60;8.43;;;;;;;8.44;100.00;95684.47;5016559;28;20029;-73
2021/10/31 07:00:49;;;;;;;13.27;8.50;;;;;;;8.66;100.00;95684.88;5042257;28;20395;-73
2021/10/31 07:03:14;;;;;;;14.07;8.90;;;;;;;8.86;100.00;95685.38;5042679;28;20117;-73
2021/10/31 07:05:40;;;;;;;14.40;10.53;;;;;;;9.02;100.00;95681.94;5039206;28;20150;-73
2021/10/31 07:08:06;;;;;;;14.93;11.00;;;;;;;8.62;100.00;95686.97;5045380;28;20021;-73
2021/10/31 07:10:31;;;;;;;15.93;11.80;;;;;;;8.65;100.00;95684.03;5054264;28;20033;-73
2021/10/31 07:12:57;;;;;;;17.47;11.50;;;;;;;8.87;100.00;95679.97;5062049;28;20433;-73
2021/10/31 07:15:24;;;;;;;15.87;10.97;;;;;;;8.97;100.00;95674.56;5018694;28;20155;-73
2021/10/31 07:17:50;;;;;;;17.70;12.40;;;;;;;9.11;100.00;95665.22;5026197;28;20713;-73
2021/10/31 07:20:15;;;;;;;18.50;13.03;;;;;;;9.38;100.00;95666.69;5043867;28;20047;-73
2021/10/31 07:22:42;;;;;;;16.50;12.10;;;;;;;9.47;100.00;95665.69;5057654;28;20021;-73
2021/10/31 07:25:09;;;;;;;16.17;12.83;;;;;;;9.54;100.00;95666.69;5038556;28;20793;-73
2021/10/31 07:27:35;;;;;;;18.07;13.47;;;;;;;9.56;100.00;95669.16;5024585;28;20071;-73
2021/10/31 07:30:02;;;;;;;18.27;13.37;;;;;;;9.37;100.00;95680.81;5050119;28;20560;-74
2021/10/31 07:32:28;;;;;;;17.30;12.53;;;;;;;9.45;100.00;95678.97;5058798;28;20068;-74
2021/10/31 07:34:54;;;;;;;16.93;12.80;;;;;;;9.33;100.00;95685.56;5067054;28;20064;-74
2021/10/31 07:37:20;;;;;;;15.73;11.90;;;;;;;9.26;100.00;95689.84;5044040;28;20028;-74
2021/10/31 07:39:45;;;;;;;22.07;13.57;;;;;;;9.58;100.00;95677.66;5057628;28;20628;-74
2021/10/31 07:42:13;;;;;;;19.40;12.33;;;;;;;10.11;100.00;95684.09;5055812;28;20048;-74
2021/10/31 07:44:39;;;;;;;14.80;11.40;;;;;;;10.43;100.00;95675.28;5061944;28;20497;-74
2021/10/31 07:47:05;;;;;;;15.10;11.00;;;;;;;10.40;100.00;95678.28;5033272;28;20505;-73
2021/10/31 07:49:30;;;;;;;15.90;10.73;;;;;;;10.78;100.00;95678.38;5024722;28;20481;-73
2021/10/31 07:51:56;;;;;;;16.27;12.20;;;;;;;10.65;100.00;95678.13;5020957;28;20059;-73
2021/10/31 07:54:25;;;;;;;15.93;11.23;;;;;;;10.95;100.00;95682.53;5033762;28;20401;-75
2021/10/31 07:56:55;;;;;;;16.90;11.00;;;;;;;11.25;100.00;95672.94;5042055;28;20033;-73
2021/10/31 07:59:21;;;;;;;13.10;10.03;;;;;;;11.35;100.00;95669.25;5040846;28;20040;-74
2021/10/31 08:01:46;;;;;;;13.43;9.87;;;;;;;11.58;99.74;95664.75;5062462;28;20521;-73
2021/10/31 08:04:14;;;;;;;13.33;9.23;;;;;;;12.30;95.43;95656.25;5055049;28;20104;-73
2021/10/31 08:06:40;;;;;;;13.97;9.67;;;;;;;12.39;94.95;95649.88;5052156;28;20029;-73
2021/10/31 08:09:05;;;;;;;13.63;9.57;;;;;;;12.60;94.15;95641.19;5032247;28;20114;-73
2021/10/31 08:11:31;;;;;;;11.43;7.57;;;;;;;12.37;94.52;95646.59;5044277;28;20482;-73
2021/10/31 08:13:56;;;;;;;12.63;8.53;;;;;;;12.43;94.70;95639.78;5057460;28;20029;-74
2021/10/31 08:16:24;;;;;;;11.00;7.90;;;;;;;12.39;94.19;95641.97;5045867;28;20557;-73
2021/10/31 08:18:51;;;;;;;10.63;7.87;;;;;;;12.37;95.20;95648.41;5042657;28;20393;-74
2021/10/31 08:21:17;;;;;;;9.20;6.77;;;;;;;12.60;93.97;95657.00;5039946;28;20474;-73
2021/10/31 08:23:43;;;;;;;11.37;7.90;;;;;;;12.48;94.10;95650.59;5035170;28;20036;-74
2021/10/31 08:26:09;;;;;;;11.10;7.13;;;;;;;13.12;90.16;95639.28;5039536;28;20031;-74
2021/10/31 08:28:38;;;;;;;9.57;7.17;;;;;;;13.55;88.46;95633.97;5031355;28;20048;-74
2021/10/31 08:31:04;;;;;;;15.63;7.00;;;;;;;14.17;83.70;95633.13;5022094;28;20034;-74
2021/10/31 08:33:35;;;;;;;10.10;6.90;;;;;;;14.72;82.15;95635.78;5042846;28;20037;-73
2021/10/31 08:36:03;;;;;;;9.10;6.50;;;;;;;15.21;78.10;95627.53;5046252;28;20032;-74
2021/10/31 08:38:28;;;;;;;10.93;7.23;;;;;;;14.95;78.85;95620.38;5035852;28;20032;-73
2021/10/31 08:40:56;;;;;;;10.03;5.83;;;;;;;14.92;78.52;95619.94;5057969;28;20086;-74
2021/10/31 08:43:23;;;;;;;7.05;4.60;;;;;;;15.08;77.06;95627.50;5050541;28;20043;-73
2021/10/31 08:45:50;;;;;;;7.18;4.75;;;;;;;15.27;76.22;95620.63;5024254;28;20067;-74
2021/10/31 08:48:17;;;;;;;9.02;4.90;;;;;;;15.27;75.37;95613.47;5038432;28;20090;-73
2021/10/31 08:50:44;;;;;;;6.97;3.88;;;;;;;15.90;72.75;95604.28;5039515;28;20044;-73
2021/10/31 08:53:11;;;;;;;7.25;4.82;;;;;;;16.41;71.55;95592.88;5060624;28;20021;-74
2021/10/31 08:55:39;;;;;;;6.47;4.75;;;;;;;16.47;70.21;95600.81;5040777;28;20056;-74
2021/10/31 08:58:09;;;;;;;6.03;4.10;;;;;;;17.08;68.31;95590.69;5059706;28;20033;-74
2021/10/31 09:00:37;;;;;;;6.85;4.22;;;;;;;17.22;66.25;95594.03;5048200;28;20063;-74
2021/10/31 09:03:05;;;;;;;7.85;3.75;;;;;;;16.98;66.16;95585.84;5064944;28;20028;-74
2021/10/31 09:05:31;;;;;;;5.53;3.65;;;;;;;17.30;64.58;95585.78;5045467;28;20033;-74
2021/10/31 09:07:57;;;;;;;6.40;3.65;;;;;;;16.96;66.43;95579.91;5032741;28;20032;-73
2021/10/31 09:10:23;;;;;;;6.25;3.65;;;;;;;16.53;68.08;95590.34;5059912;28;20040;-74
2021/10/31 09:12:49;;;;;;;8.18;4.60;;;;;;;16.22;69.04;95584.78;5060189;28;20032;-74
2021/10/31 09:15:15;;;;;;;6.53;4.05;;;;;;;16.28;70.27;95583.13;5028220;28;20045;-74
2021/10/31 09:17:40;;;;;;;8.25;4.75;;;;;;;16.38;70.29;95582.69;5033837;28;20551;-74
2021/10/31 09:20:06;;;;;;;9.07;5.50;;;;;;;16.21;72.71;95572.53;5050942;28;20036;-74
2021/10/31 09:22:32;;;;;;;6.38;4.10;;;;;;;15.54;72.84;95576.38;5023349;28;20048;-74
2021/10/31 09:24:58;;;;;;;8.10;4.80;;;;;;;15.56;73.27;95569.84;5032193;28;20072;-74
2021/10/31 09:27:24;;;;;;;6.03;3.80;;;;;;;16.26;70.81;95554.16;5055793;28;20035;-75
2021/10/31 09:29:50;;;;;;;6.72;3.88;;;;;;;16.31;69.83;95542.09;5041641;28;20127;-74
2021/10/31 09:32:15;;;;;;;8.23;3.70;;;;;;;16.20;70.31;95549.69;5057926;28;20041;-74
2021/10/31 09:34:43;;;;;;;6.07;3.70;;;;;;;16.20;69.69;95544.41;5071154;28;20028;-74
2021/10/31 09:37:09;;;;;;;7.30;3.65;;;;;;;16.18;69.52;95541.13;5039421;28;20028;-74
2021/10/31 09:39:35;;;;;;;4.28;2.63;;;;;;;16.56;67.88;95539.50;5042167;28;20489;-74
2021/10/31 09:42:01;;;;;;;5.07;3.05;;;;;;;16.74;65.66;95534.28;5052257;28;20023;-74
2021/10/31 09:44:47;;;;;;;5.05;2.72;;;;;;;17.13;64.44;95524.41;5044417;28;20033;-74
2021/10/31 09:47:13;;;;;;;4.85;2.63;;;;;;;16.96;64.14;95526.78;5034369;28;20048;-75
2021/10/31 09:49:39;;;;;;;3.80;2.45;;;;;;;17.59;62.72;95521.31;5060244;28;20095;-75
2021/10/31 09:52:05;;;;;;;3.75;2.25;;;;;;;18.03;61.99;95521.28;5044681;28;20429;-74
2021/10/31 09:54:32;;;;;;;3.60;2.22;;;;;;;17.58;60.07;95525.03;5040545;28;20164;-74
2021/10/31 09:56:58;;;;;;;4.72;2.10;;;;;;;17.43;60.80;95519.22;5036886;28;20060;-74
2021/10/31 09:59:26;;;;;;;6.80;2.10;;;;;;;17.50;59.81;95527.94;5023564;28;20061;-74
2021/10/31 10:02:12;;;;;;;4.38;2.35;;;;;;;17.88;59.69;95519.00;5022919;28;20116;-74
2021/10/31 10:04:47;;;;;;;4.07;2.45;;;;;;;18.07;58.84;95514.47;5041736;28;20542;-74
2021/10/31 10:07:14;;;;;;;3.03;1.92;;;;;;;17.89;58.37;95507.31;5036277;28;20040;-74
2021/10/31 10:09:53;;;;;;;3.83;1.85;;;;;;;18.89;56.51;95490.81;5033816;28;20060;-74
2021/10/31 10:12:21;;;;;;;4.28;2.35;;;;;;;19.25;55.38;95489.81;5059328;28;20075;-74
2021/10/31 10:15:07;;;;;;;3.38;1.90;;;;;;;19.35;54.20;95475.91;5038192;28;20024;-74
2021/10/31 10:17:53;;;;;;;3.50;1.55;;;;;;;18.65;54.95;95489.13;5040382;28;20116;-75
2021/10/31 10:20:20;;;;;;;3.08;1.83;;;;;;;19.47;54.03;95476.69;5042834;28;20035;-74
2021/10/31 10:22:47;;;;;;;4.72;1.65;;;;;;;19.22;51.59;95465.50;5048098;28;20433;-74
2021/10/31 10:25:13;;;;;;;3.00;1.58;;;;;;;19.02;52.71;95469.31;5061574;28;20106;-76
2021/10/31 10:27:50;;;;;;;5.45;2.17;;;;;;;19.04;52.51;95458.41;5018131;28;20040;-74
2021/10/31 10:30:19;;;;;;;3.00;1.25;;;;;;;19.13;53.07;95449.03;5040499;28;20147;-74
2021/10/31 10:32:57;;;;;;;2.58;1.55;;;;;;;18.68;53.38;95454.88;5028227;28;20028;-74
2021/10/31 10:35:26;;;;;;;3.38;1.70;;;;;;;19.46;51.74;95445.75;5020656;28;20055;-73
2021/10/31 10:37:53;;;;;;;4.28;1.73;;;;;;;19.92;51.60;95440.56;5041931;28;20091;-74
2021/10/31 10:40:27;;;;;;;3.17;1.83;;;;;;;19.78;51.07;95429.34;5070300;28;20032;-74
2021/10/31 10:42:55;;;;;;;3.97;1.65;;;;;;;19.84;51.11;95431.09;5040312;28;20033;-74
2021/10/31 10:45:24;;;;;;;2.78;1.50;;;;;;;20.02;49.53;95430.13;5064978;28;20047;-74
2021/10/31 10:47:55;;;;;;;1.70;1.10;;;;;;;20.42;48.06;95431.88;5070477;28;20047;-74
2021/10/31 10:50:28;;;;;;;3.17;1.80;;;;;;;20.56;46.09;95421.75;5030775;28;20434;-74
2021/10/31 10:52:55;;;;;;;2.75;1.45;;;;;;;19.84;48.09;95436.41;5042123;28;20079;-74
2021/10/31 10:55:22;;;;;;;3.30;1.67;;;;;;;19.69;48.05;95423.59;5033593;28;20029;-74
2021/10/31 10:57:52;;;;;;;4.05;1.58;;;;;;;19.43;48.99;95421.41;5044505;28;20095;-74
2021/10/31 11:00:32;;;;;;;3.08;1.70;;;;;;;19.11;49.53;95418.31;5052658;28;20036;-74
2021/10/31 11:03:04;;;;;;;2.40;1.80;;;;;;;19.55;49.07;95407.03;5038116;28;20035;-74
2021/10/31 11:05:34;;;;;;;3.10;1.55;;;;;;;20.02;48.13;95406.91;5041969;28;20037;-74
2021/10/31 11:08:01;;;;;;;2.70;1.48;;;;;;;19.14;49.94;95405.31;5037980;28;20037;-73
2021/10/31 11:10:31;;;;;;;3.70;1.90;;;;;;;19.76;50.38;95402.13;5042347;28;20040;-74
2021/10/31 11:13:04;;;;;;;3.33;1.50;;;;;;;19.95;49.81;95384.88;5037569;28;20028;-74
2021/10/31 11:15:33;;;;;;;3.90;1.55;;;;;;;19.83;50.07;95386.78;5041863;28;20033;-75
2021/10/31 11:18:01;;;;;;;2.28;1.63;;;;;;;20.11;50.64;95377.13;5045124;28;20473;-74
2021/10/31 11:20:30;;;;;;;2.75;1.70;;;;;;;20.62;49.53;95373.50;5041848;28;20075;-74
2021/10/31 11:23:00;;;;;;;3.10;1.70;;;;;;;19.36;50.72;95380.75;5055804;28;20028;-75
2021/10/31 11:25:28;;;;;;;4.15;1.90;;;;;;;19.94;48.68;95372.56;5052640;28;20481;-74
2021/10/31 11:27:56;;;;;;;3.65;2.20;;;;;;;19.57;50.59;95366.75;5039188;28;20033;-74
2021/10/31 11:30:23;;;;;;;3.53;2.08;;;;;;;19.54;51.40;95368.03;5028596;28;20067;-74
2021/10/31 11:32:50;;;;;;;2.85;1.80;;;;;;;20.12;50.37;95363.56;5046958;28;20033;-73
2021/10/31 11:35:19;;;;;;;4.40;2.22;;;;;;;19.79;48.58;95350.97;5029481;28;20040;-74